Strona główna
METAR-TAF:

METAR-TAF

Lotnisko :

Lotnisko Zeltweg

Zeltweg, Austria

Szerokość geograficzna: 47-12N, Długość geograficzna: 014-45E, wysokość: 677 m

Aktualna obserwacja pogody

Raport powstał 4 godziny i 6 minut temu, godzina 20:50 UTC
Wiatr 16 kt od wschodnio-północny wschód
Temperatura 3°C
Wilgotność 70%
Ciśnienie 1031 hPa

METAR: LOXZ 222050Z 06016KT 20KM FEW025SC BKN040SC 03/M02 Q1031

czas: 01:56 (00:56 UTC)

Prognoza

Raport powstał 10 godziny i 41 minut temu, godzina 14:15 UTC
Prognoza ważna od 21 godzina 15 UTC do 21 godzina 24 UTC
Wiatr 3 kt z kierunków zmiennych
Widzialność 10 km lub więcej
Mało chmury na wysokości 5000 ft
Rozproszone chmury na wysokości 10000 ft
Przerywane chmury na wysokości 20000 ft
Przejściowo
od 21 godzina 16 UTC do 21 godzina 24 UTC
Wiatr 12 kt od zachodnio-północny zachód
Rozproszone chmury na wysokości 6000 ft
Przerywane chmury na wysokości 10000 ft

TAF: LOXZ 211415Z 2115/2124 VRB03KT 9999 FEW050 SCT100 BKN200 TEMPO 2116/2124 29012KT SCT060 BKN100

Obserwacja i prognoza pogody dla ponad 4000 lotnisk (raport METAR i TAF).

Dostępne stacje oznaczono żółtymi i czerwonymi punktami na mapie.

Najedź kursorem aby zobaczyć nazwę stacji.

Kliknij aby zobaczyć obserwacje i prognozy pogody.

Aby zmienić mapę: kliknij na zielony przycisk z czarnym krzyżykiem, aby powiększyć; na zielony przycisk z myślnikiem, aby pomniejszyć; na zielone strzałki, aby przejść do map sąsiednich.


METAR-TAF: